KJTC

Springerville Municipal Airport

Springerville, Arizona, USA
METAR KJTC 161215Z AUTO 21007KT 10SM CLR M04/M13 A3034 RMK AO2
Observed Flight Rules
Dec-16 @ 12:15 UTC (29 minutes ago) Visual Flight Rules
Wind Visibility Clouds
210° at 7 knots 10 miles
  • Clear skies
Temperatures Readings
Current -4°C / 25°F
Dewpoint -13°C / 9°F
Humidity 50%
Altimeter 30.34" Hg
Pressure 1027 hPa
Elevation 2150
METAR KJTC 161215Z AUTO 21007KT 10SM CLR M04/M13 A3034 RMK AO2
Observed Flight Rules
Dec-16 @ 12:15 UTC
(29 minutes ago)
VFR
Wind Visibility
210° at 7 knots 10 miles
Clouds
  • Clear skies
Temperature Dewpoint
-4°C / 25°F -13°C / 9°F
Humidity Altimeter Pressure
50% 30.34" Hg 1027 hPa